Time,TemperatureF,DewpointF,PressureIn,WindDirection,WindDirectionDegrees,WindSpeedMPH,WindSpeedGustMPH,Humidity,HourlyPrecipIn,Conditions,Clouds,dailyrainin,SoftwareType,DateUTC
2013-02-21 00:00:00,24.2,9.9,29.85,SW,227,0.0,0.0,54,0.00,,,0.00,Wunderground v.1.15,2013-02-21 05:00:00,
2013-02-21 00:05:00,24.2,9.9,29.85,WSW,238,0.0,0.0,54,0.00,,,0.00,Wunderground v.1.15,2013-02-21 05:05:00,
2013-02-21 00:10:00,24.2,10.3,29.85,WSW,238,0.0,0.0,55,0.00,,,0.00,Wunderground v.1.15,2013-02-21 05:10:00,
2013-02-21 00:15:00,24.1,10.2,29.85,WSW,238,0.0,0.0,55,0.00,,,0.00,Wunderground v.1.15,2013-02-21 05:15:00,
2013-02-21 00:20:00,24.1,10.2,29.86,WSW,238,0.0,0.0,55,0.00,,,0.00,Wunderground v.1.15,2013-02-21 05:20:00,
2013-02-21 00:25:00,24.1,10.6,29.86,WSW,238,0.0,0.0,56,0.00,,,0.00,Wunderground v.1.15,2013-02-21 05:25:00,
2013-02-21 00:35:00,24.1,10.6,29.86,WSW,238,0.0,0.0,56,0.00,,,0.00,Wunderground v.1.15,2013-02-21 05:35:00,
2013-02-21 00:40:00,24.1,10.6,29.86,NNW,334,0.0,0.0,56,0.00,,,0.00,Wunderground v.1.15,2013-02-21 05:40:00,
2013-02-21 00:50:00,24.2,10.7,29.85,North,349,0.0,0.0,56,0.00,,,0.00,Wunderground v.1.15,2013-02-21 05:50:00,
2013-02-21 01:00:00,24.2,10.7,29.85,SSW,198,0.0,0.0,56,0.00,,,0.00,Wunderground v.1.15,2013-02-21 06:00:00,
2013-02-21 01:05:00,24.1,10.6,29.85,SSE,163,0.0,0.0,56,0.00,,,0.00,Wunderground v.1.15,2013-02-21 06:05:00,
2013-02-21 01:10:00,23.9,10.9,29.85,SSW,194,0.0,0.0,57,0.00,,,0.00,Wunderground v.1.15,2013-02-21 06:10:00,
2013-02-21 01:15:00,23.8,10.8,29.85,SSW,194,0.0,0.0,57,0.00,,,0.00,Wunderground v.1.15,2013-02-21 06:15:00,
2013-02-21 01:20:00,23.6,10.6,29.85,SSE,163,0.0,0.0,57,0.00,,,0.00,Wunderground v.1.15,2013-02-21 06:20:00,
2013-02-21 01:25:00,23.6,11.0,29.85,South,188,0.0,0.0,58,0.00,,,0.00,Wunderground v.1.15,2013-02-21 06:25:00,
2013-02-21 01:35:00,23.6,11.0,29.84,South,180,0.0,0.0,58,0.00,,,0.00,Wunderground v.1.15,2013-02-21 06:35:00,
2013-02-21 01:40:00,23.5,10.9,29.84,South,180,0.0,0.0,58,0.00,,,0.00,Wunderground v.1.15,2013-02-21 06:40:00,
2013-02-21 01:45:00,23.3,11.1,29.84,South,180,0.0,0.0,59,0.00,,,0.00,Wunderground v.1.15,2013-02-21 06:45:00,
2013-02-21 01:50:00,23.2,11.0,29.85,South,180,0.0,0.0,59,0.00,,,0.00,Wunderground v.1.15,2013-02-21 06:50:00,
2013-02-21 01:55:00,23.0,11.2,29.85,South,180,0.0,0.0,60,0.00,,,0.00,Wunderground v.1.15,2013-02-21 06:55:00,
2013-02-21 02:05:00,22.5,11.4,29.85,South,180,0.0,0.0,62,0.00,,,0.00,Wunderground v.1.15,2013-02-21 07:05:00,
2013-02-21 02:10:00,22.4,11.3,29.85,NNW,344,1.0,1.0,62,0.00,,,0.00,Wunderground v.1.15,2013-02-21 07:10:00,
2013-02-21 02:15:00,23.6,11.4,29.85,NW,317,2.0,2.0,59,0.00,,,0.00,Wunderground v.1.15,2013-02-21 07:15:00,
2013-02-21 02:20:00,24.7,10.8,29.85,NNW,333,3.0,3.0,55,0.00,,,0.00,Wunderground v.1.15,2013-02-21 07:20:00,
2013-02-21 02:30:00,25.4,10.6,29.85,NNW,344,3.0,3.0,53,0.00,,,0.00,Wunderground v.1.15,2013-02-21 07:30:00,
2013-02-21 02:40:00,25.3,10.1,29.85,NW,321,1.0,1.0,52,0.00,,,0.00,Wunderground v.1.15,2013-02-21 07:40:00,
2013-02-21 02:45:00,25.3,10.5,29.85,SW,223,0.0,1.0,53,0.00,,,0.00,Wunderground v.1.15,2013-02-21 07:45:00,
2013-02-21 02:50:00,25.1,10.3,29.85,SW,221,0.0,0.0,53,0.00,,,0.00,Wunderground v.1.15,2013-02-21 07:50:00,
2013-02-21 02:55:00,24.8,10.5,29.85,WSW,257,0.0,0.0,54,0.00,,,0.00,Wunderground v.1.15,2013-02-21 07:55:00,
2013-02-21 03:00:00,24.8,10.9,29.85,NNW,339,0.0,0.0,55,0.00,,,0.00,Wunderground v.1.15,2013-02-21 08:00:00,
2013-02-21 03:05:00,25.0,11.1,29.86,WNW,300,1.0,1.0,55,0.00,,,0.00,Wunderground v.1.15,2013-02-21 08:05:00,
2013-02-21 03:10:00,25.0,11.1,29.86,West,271,1.0,1.0,55,0.00,,,0.00,Wunderground v.1.15,2013-02-21 08:10:00,
2013-02-21 03:20:00,24.7,11.2,29.86,WNW,298,0.0,2.0,56,0.00,,,0.00,Wunderground v.1.15,2013-02-21 08:20:00,
2013-02-21 03:25:00,24.7,11.6,29.86,North,355,1.0,2.0,57,0.00,,,0.00,Wunderground v.1.15,2013-02-21 08:25:00,
2013-02-21 03:30:00,24.7,11.6,29.86,NW,317,1.0,1.0,57,0.00,,,0.00,Wunderground v.1.15,2013-02-21 08:30:00,
2013-02-21 03:35:00,24.5,11.8,29.86,West,274,1.0,2.0,58,0.00,,,0.00,Wunderground v.1.15,2013-02-21 08:35:00,
2013-02-21 03:45:00,24.5,11.8,29.86,NW,304,1.0,1.0,58,0.00,,,0.00,Wunderground v.1.15,2013-02-21 08:45:00,
2013-02-21 03:55:00,24.2,11.9,29.86,WSW,250,0.0,0.0,59,0.00,,,0.00,Wunderground v.1.15,2013-02-21 08:55:00,
2013-02-21 04:00:00,24.2,11.9,29.86,SW,227,0.0,0.0,59,0.00,,,0.00,Wunderground v.1.15,2013-02-21 09:00:00,
2013-02-21 04:05:00,24.2,12.3,29.85,West,267,0.0,0.0,60,0.00,,,0.00,Wunderground v.1.15,2013-02-21 09:05:00,
2013-02-21 04:15:00,24.1,12.2,29.85,WSW,241,0.0,0.0,60,0.00,,,0.00,Wunderground v.1.15,2013-02-21 09:15:00,
2013-02-21 04:20:00,24.1,12.2,29.86,WSW,241,0.0,0.0,60,0.00,,,0.00,Wunderground v.1.15,2013-02-21 09:20:00,
2013-02-21 04:25:00,23.9,12.4,29.86,WSW,241,0.0,0.0,61,0.00,,,0.00,Wunderground v.1.15,2013-02-21 09:25:00,
2013-02-21 04:30:00,23.8,12.3,29.86,WSW,241,0.0,0.0,61,0.00,,,0.00,Wunderground v.1.15,2013-02-21 09:30:00,
2013-02-21 04:40:00,23.9,12.0,29.86,NW,326,0.0,0.0,60,0.00,,,0.00,Wunderground v.1.15,2013-02-21 09:40:00,
2013-02-21 04:45:00,23.9,12.0,29.86,North,350,0.0,0.0,60,0.00,,,0.00,Wunderground v.1.15,2013-02-21 09:45:00,
2013-02-21 04:50:00,24.1,11.4,29.86,South,189,0.0,1.0,58,0.00,,,0.00,Wunderground v.1.15,2013-02-21 09:50:00,
2013-02-21 05:00:00,24.5,10.6,29.86,West,259,1.0,1.0,55,0.00,,,0.00,Wunderground v.1.15,2013-02-21 10:00:00,
2013-02-21 05:10:00,24.7,10.4,29.86,NE,42,1.0,1.0,54,0.00,,,0.00,Wunderground v.1.15,2013-02-21 10:10:00,
2013-02-21 05:20:00,24.7,10.4,29.88,WSW,246,0.0,0.0,54,0.00,,,0.00,Wunderground v.1.15,2013-02-21 10:20:00,
2013-02-21 05:30:00,24.7,10.0,29.88,NNW,333,1.0,1.0,53,0.00,,,0.00,Wunderground v.1.15,2013-02-21 10:30:00,
2013-02-21 05:35:00,24.8,9.2,29.87,West,265,2.0,2.0,51,0.00,,,0.00,Wunderground v.1.15,2013-02-21 10:35:00,
2013-02-21 05:40:00,25.0,9.0,29.87,NNW,329,2.0,2.0,50,0.00,,,0.00,Wunderground v.1.15,2013-02-21 10:40:00,
2013-02-21 05:45:00,25.1,9.0,29.87,SW,225,1.0,3.0,50,0.00,,,0.00,Wunderground v.1.15,2013-02-21 10:45:00,
2013-02-21 05:50:00,25.1,10.3,29.88,WSW,246,1.0,1.0,53,0.00,,,0.00,Wunderground v.1.15,2013-02-21 10:50:00,
2013-02-21 06:00:00,24.5,11.8,29.88,SSE,160,0.0,2.0,58,0.00,,,0.00,Wunderground v.1.15,2013-02-21 11:00:00,
2013-02-21 06:05:00,24.2,11.9,29.88,West,266,0.0,2.0,59,0.00,,,0.00,Wunderground v.1.15,2013-02-21 11:05:00,
2013-02-21 06:15:00,24.1,12.2,29.88,SW,231,0.0,0.0,60,0.00,,,0.00,Wunderground v.1.15,2013-02-21 11:15:00,
2013-02-21 06:20:00,23.9,12.0,29.88,West,267,0.0,0.0,60,0.00,,,0.00,Wunderground v.1.15,2013-02-21 11:20:00,
2013-02-21 06:25:00,23.9,12.0,29.88,West,261,0.0,0.0,60,0.00,,,0.00,Wunderground v.1.15,2013-02-21 11:25:00,
2013-02-21 06:35:00,23.9,12.4,29.89,West,260,0.0,0.0,61,0.00,,,0.00,Wunderground v.1.15,2013-02-21 11:35:00,
2013-02-21 06:40:00,23.8,12.3,29.89,West,260,0.0,0.0,61,0.00,,,0.00,Wunderground v.1.15,2013-02-21 11:40:00,
2013-02-21 06:45:00,23.8,12.3,29.89,WSW,247,0.0,0.0,61,0.00,,,0.00,Wunderground v.1.15,2013-02-21 11:45:00,
2013-02-21 06:55:00,23.6,12.5,29.89,SSW,204,0.0,0.0,62,0.00,,,0.00,Wunderground v.1.15,2013-02-21 11:55:00,
2013-02-21 07:05:00,23.6,12.5,29.89,SSW,204,0.0,0.0,62,0.00,,,0.00,Wunderground v.1.15,2013-02-21 12:05:00,
2013-02-21 07:10:00,23.6,12.5,29.89,SSW,204,0.0,0.0,62,0.00,,,0.00,Wunderground v.1.15,2013-02-21 12:10:00,
2013-02-21 07:15:00,23.9,12.4,29.89,WSW,240,0.0,0.0,61,0.00,,,0.00,Wunderground v.1.15,2013-02-21 12:15:00,
2013-02-21 07:20:00,24.1,12.6,29.89,North,349,0.0,3.0,61,0.00,,,0.00,Wunderground v.1.15,2013-02-21 12:20:00,
2013-02-21 07:25:00,24.2,11.1,29.89,NNE,12,1.0,8.0,57,0.00,,,0.00,Wunderground v.1.15,2013-02-21 12:25:00,
2013-02-21 07:30:00,24.7,10.8,29.89,North,360,2.0,2.0,55,0.00,,,0.00,Wunderground v.1.15,2013-02-21 12:30:00,
2013-02-21 07:35:00,25.1,9.5,29.89,NE,48,1.0,2.0,51,0.00,,,0.00,Wunderground v.1.15,2013-02-21 12:35:00,
2013-02-21 07:40:00,25.3,8.8,29.89,NNE,15,1.0,1.0,49,0.00,,,0.00,Wunderground v.1.15,2013-02-21 12:40:00,
2013-02-21 07:45:00,25.6,8.1,29.89,NW,313,2.0,5.0,47,0.00,,,0.00,Wunderground v.1.15,2013-02-21 12:45:00,
2013-02-21 07:50:00,25.8,8.3,29.89,NW,321,3.0,3.0,47,0.00,,,0.00,Wunderground v.1.15,2013-02-21 12:50:00,
2013-02-21 07:59:00,26.4,8.4,29.89,NNW,330,2.0,4.0,46,0.00,,,0.00,Wunderground v.1.15,2013-02-21 12:59:00,
2013-02-21 08:05:00,26.4,8.4,29.88,WSW,248,3.0,4.0,46,0.00,,,0.00,Wunderground v.1.15,2013-02-21 13:05:00,
2013-02-21 08:10:00,26.6,8.6,29.88,WNW,294,3.0,3.0,46,0.00,,,0.00,Wunderground v.1.15,2013-02-21 13:10:00,
2013-02-21 08:20:00,27.0,8.5,29.88,WNW,283,3.0,17.0,45,0.00,,,0.00,Wunderground v.1.15,2013-02-21 13:20:00,
2013-02-21 08:25:00,27.0,8.9,29.88,WNW,302,3.0,17.0,46,0.00,,,0.00,Wunderground v.1.15,2013-02-21 13:25:00,
2013-02-21 08:30:00,27.0,8.9,29.88,NW,321,4.0,4.0,46,0.00,,,0.00,Wunderground v.1.15,2013-02-21 13:30:00,
2013-02-21 08:35:00,27.2,8.6,29.89,West,275,4.0,4.0,45,0.00,,,0.00,Wunderground v.1.15,2013-02-21 13:35:00,
2013-02-21 08:40:00,27.5,8.9,29.89,NNE,30,2.0,7.0,45,0.00,,,0.00,Wunderground v.1.15,2013-02-21 13:40:00,
2013-02-21 08:50:00,27.5,8.9,29.88,NNW,348,4.0,4.0,45,0.00,,,0.00,Wunderground v.1.15,2013-02-21 13:50:00,
2013-02-21 08:55:00,27.8,9.2,29.88,WNW,284,4.0,4.0,45,0.00,,,0.00,Wunderground v.1.15,2013-02-21 13:55:00,
2013-02-21 09:00:00,28.1,9.0,29.88,NW,323,2.0,4.0,44,0.00,,,0.00,Wunderground v.1.15,2013-02-21 14:00:00,
2013-02-21 09:05:00,28.4,9.7,29.88,NW,317,2.0,4.0,45,0.00,,,0.00,Wunderground v.1.15,2013-02-21 14:05:00,
2013-02-21 09:10:00,28.2,9.0,29.88,NNW,330,4.0,6.0,44,0.00,,,0.00,Wunderground v.1.15,2013-02-21 14:10:00,
2013-02-21 09:20:00,27.6,8.5,29.89,SSW,205,5.0,9.0,44,0.00,,,0.00,Wunderground v.1.15,2013-02-21 14:20:00,
2013-02-21 09:30:00,27.9,9.3,29.89,North,360,5.0,9.0,45,0.00,,,0.00,Wunderground v.1.15,2013-02-21 14:30:00,
2013-02-21 09:35:00,27.6,9.0,29.89,NNE,28,6.0,11.0,45,0.00,,,0.00,Wunderground v.1.15,2013-02-21 14:35:00,
2013-02-21 09:40:00,27.3,9.2,29.89,NE,52,8.0,8.0,46,0.00,,,0.00,Wunderground v.1.15,2013-02-21 14:40:00,
2013-02-21 09:45:00,27.2,9.1,29.89,NNW,344,6.0,8.0,46,0.00,,,0.00,Wunderground v.1.15,2013-02-21 14:45:00,
2013-02-21 09:55:00,27.9,10.2,29.90,NNW,330,5.0,6.0,47,0.00,,,0.00,Wunderground v.1.15,2013-02-21 14:55:00,
2013-02-21 10:00:00,27.9,10.2,29.90,NNW,339,6.0,6.0,47,0.00,,,0.00,Wunderground v.1.15,2013-02-21 15:00:00,
2013-02-21 10:05:00,28.2,11.0,29.89,North,360,7.0,12.0,48,0.00,,,0.00,Wunderground v.1.15,2013-02-21 15:05:00,
2013-02-21 10:15:00,27.8,11.5,29.89,NNE,17,6.0,9.0,50,0.00,,,0.00,Wunderground v.1.15,2013-02-21 15:15:00,
2013-02-21 10:20:00,27.9,11.2,29.90,NNW,346,4.0,5.0,49,0.00,,,0.00,Wunderground v.1.15,2013-02-21 15:20:00,
2013-02-21 10:25:00,27.5,11.3,29.90,NW,322,5.0,7.0,50,0.00,,,0.00,Wunderground v.1.15,2013-02-21 15:25:00,
2013-02-21 10:35:00,27.9,11.6,29.90,NNW,333,5.0,7.0,50,0.00,,,0.00,Wunderground v.1.15,2013-02-21 15:35:00,
2013-02-21 10:40:00,28.4,11.6,29.90,WNW,302,5.0,6.0,49,0.00,,,0.00,Wunderground v.1.15,2013-02-21 15:40:00,
2013-02-21 10:45:00,28.4,11.6,29.90,NNW,328,4.0,10.0,49,0.00,,,0.00,Wunderground v.1.15,2013-02-21 15:45:00,
2013-02-21 10:55:00,28.1,10.9,29.89,NW,309,6.0,8.0,48,0.00,,,0.00,Wunderground v.1.15,2013-02-21 15:55:00,
2013-02-21 11:00:00,27.9,10.7,29.89,NW,306,7.0,8.0,48,0.00,,,0.00,Wunderground v.1.15,2013-02-21 16:00:00,
2013-02-21 11:05:00,27.8,11.1,29.90,NNW,335,6.0,8.0,49,0.00,,,0.00,Wunderground v.1.15,2013-02-21 16:05:00,
2013-02-21 11:10:00,28.4,11.6,29.90,NNW,342,5.0,5.0,49,0.00,,,0.00,Wunderground v.1.15,2013-02-21 16:10:00,
2013-02-21 11:15:00,28.4,11.2,29.90,NNW,330,5.0,8.0,48,0.00,,,0.00,Wunderground v.1.15,2013-02-21 16:15:00,
2013-02-21 11:25:00,28.4,11.6,29.89,NW,325,8.0,8.0,49,0.00,,,0.00,Wunderground v.1.15,2013-02-21 16:25:00,
2013-02-21 11:30:00,29.0,11.7,29.89,NNW,327,5.0,8.0,48,0.00,,,0.00,Wunderground v.1.15,2013-02-21 16:30:00,
2013-02-21 11:39:00,29.1,11.8,29.90,NNW,343,5.0,5.0,48,0.00,,,0.00,Wunderground v.1.15,2013-02-21 16:39:00,
2013-02-21 11:45:00,29.4,11.1,29.90,North,9,4.0,5.0,46,0.00,,,0.00,Wunderground v.1.15,2013-02-21 16:45:00,
2013-02-21 11:50:00,29.4,11.1,29.90,SW,219,4.0,4.0,46,0.00,,,0.00,Wunderground v.1.15,2013-02-21 16:50:00,
2013-02-21 11:55:00,29.5,10.7,29.90,North,5,5.0,6.0,45,0.00,,,0.00,Wunderground v.1.15,2013-02-21 16:55:00,
2013-02-21 12:00:00,29.5,10.7,29.90,NW,309,4.0,10.0,45,0.00,,,0.00,Wunderground v.1.15,2013-02-21 17:00:00,
2013-02-21 12:05:00,29.5,10.7,29.90,NNE,30,6.0,10.0,45,0.00,,,0.00,Wunderground v.1.15,2013-02-21 17:05:00,
2013-02-21 12:15:00,29.7,10.4,29.90,NNW,342,7.0,9.0,44,0.00,,,0.00,Wunderground v.1.15,2013-02-21 17:15:00,
2013-02-21 12:20:00,30.1,10.8,29.89,NW,318,6.0,6.0,44,0.00,,,0.00,Wunderground v.1.15,2013-02-21 17:20:00,
2013-02-21 12:25:00,30.0,10.7,29.89,NW,320,6.0,6.0,44,0.00,,,0.00,Wunderground v.1.15,2013-02-21 17:25:00,
2013-02-21 12:30:00,30.4,11.6,29.89,NNW,336,4.0,4.0,45,0.00,,,0.00,Wunderground v.1.15,2013-02-21 17:30:00,
2013-02-21 12:35:00,31.0,11.1,29.89,North,5,2.0,9.0,43,0.00,,,0.00,Wunderground v.1.15,2013-02-21 17:35:00,
2013-02-21 12:45:00,30.0,11.2,29.89,NE,46,5.0,7.0,45,0.00,,,0.00,Wunderground v.1.15,2013-02-21 17:45:00,
2013-02-21 12:55:00,30.1,10.8,29.89,North,360,5.0,6.0,44,0.00,,,0.00,Wunderground v.1.15,2013-02-21 17:55:00,
2013-02-21 13:00:00,30.0,11.7,29.89,ENE,68,5.0,7.0,46,0.00,,,0.00,Wunderground v.1.15,2013-02-21 18:00:00,
2013-02-21 13:05:00,30.1,11.3,29.89,ENE,61,5.0,7.0,45,0.00,,,0.00,Wunderground v.1.15,2013-02-21 18:05:00,
2013-02-21 13:15:00,30.0,10.7,29.89,NW,304,4.0,5.0,44,0.00,,,0.00,Wunderground v.1.15,2013-02-21 18:15:00,
2013-02-21 13:20:00,29.5,11.2,29.89,NNE,32,5.0,5.0,46,0.00,,,0.00,Wunderground v.1.15,2013-02-21 18:20:00,
2013-02-21 13:25:00,29.1,10.4,29.89,NW,312,6.0,12.0,45,0.00,,,0.00,Wunderground v.1.15,2013-02-21 18:25:00,
2013-02-21 13:30:00,29.0,11.3,29.89,NW,308,6.0,6.0,47,0.00,,,0.00,Wunderground v.1.15,2013-02-21 18:30:00,
2013-02-21 13:35:00,29.5,11.7,29.89,North,355,4.0,11.0,47,0.00,,,0.00,Wunderground v.1.15,2013-02-21 18:35:00,
2013-02-21 13:45:00,29.8,11.5,29.89,NE,55,3.0,7.0,46,0.00,,,0.00,Wunderground v.1.15,2013-02-21 18:45:00,
2013-02-21 13:50:00,29.1,10.9,29.89,NNW,336,7.0,10.0,46,0.00,,,0.00,Wunderground v.1.15,2013-02-21 18:50:00,
2013-02-21 13:55:00,29.1,11.8,29.89,NNW,328,7.0,10.0,48,0.00,,,0.00,Wunderground v.1.15,2013-02-21 18:55:00,
2013-02-21 14:05:00,29.4,11.6,29.90,NW,308,6.0,12.0,47,0.00,,,0.00,Wunderground v.1.15,2013-02-21 19:05:00,
2013-02-21 14:15:00,29.5,11.7,29.90,NNW,334,5.0,7.0,47,0.00,,,0.00,Wunderground v.1.15,2013-02-21 19:15:00,
2013-02-21 14:20:00,29.4,11.1,29.91,NNW,338,4.0,5.0,46,0.00,,,0.00,Wunderground v.1.15,2013-02-21 19:20:00,
2013-02-21 14:25:00,29.4,11.1,29.91,NNW,341,5.0,5.0,46,0.00,,,0.00,Wunderground v.1.15,2013-02-21 19:25:00,
2013-02-21 14:30:00,29.5,11.2,29.91,North,355,6.0,6.0,46,0.00,,,0.00,Wunderground v.1.15,2013-02-21 19:30:00,
2013-02-21 14:35:00,29.5,10.7,29.91,NW,314,6.0,6.0,45,0.00,,,0.00,Wunderground v.1.15,2013-02-21 19:35:00,
2013-02-21 14:45:00,29.7,11.4,29.91,NNW,333,5.0,11.0,46,0.00,,,0.00,Wunderground v.1.15,2013-02-21 19:45:00,
2013-02-21 14:50:00,29.5,10.7,29.91,NW,317,5.0,5.0,45,0.00,,,0.00,Wunderground v.1.15,2013-02-21 19:50:00,
2013-02-21 15:00:00,29.4,11.1,29.91,NNW,342,5.0,5.0,46,0.00,,,0.00,Wunderground v.1.15,2013-02-21 20:00:00,
2013-02-21 15:10:00,29.1,10.9,29.92,NW,319,6.0,6.0,46,0.00,,,0.00,Wunderground v.1.15,2013-02-21 20:10:00,
2013-02-21 15:15:00,29.4,11.6,29.92,WNW,289,5.0,6.0,47,0.00,,,0.00,Wunderground v.1.15,2013-02-21 20:15:00,
2013-02-21 15:20:00,29.7,11.4,29.93,NNW,340,3.0,3.0,46,0.00,,,0.00,Wunderground v.1.15,2013-02-21 20:20:00,
2013-02-21 15:30:00,29.4,11.1,29.93,NNW,331,4.0,11.0,46,0.00,,,0.00,Wunderground v.1.15,2013-02-21 20:30:00,
2013-02-21 15:35:00,28.7,10.5,29.94,West,278,5.0,11.0,46,0.00,,,0.00,Wunderground v.1.15,2013-02-21 20:35:00,
2013-02-21 15:45:00,28.7,10.5,29.94,NW,311,4.0,5.0,46,0.00,,,0.00,Wunderground v.1.15,2013-02-21 20:45:00,
2013-02-21 15:55:00,28.4,10.2,29.94,NNW,337,3.0,9.0,46,0.00,,,0.00,Wunderground v.1.15,2013-02-21 20:55:00,
2013-02-21 16:05:00,27.5,9.9,29.96,NNW,344,5.0,9.0,47,0.00,,,0.00,Wunderground v.1.15,2013-02-21 21:05:00,
2013-02-21 16:10:00,27.3,9.7,29.96,NW,319,5.0,5.0,47,0.00,,,0.00,Wunderground v.1.15,2013-02-21 21:10:00,
2013-02-21 16:15:00,27.5,9.9,29.96,NNW,340,4.0,5.0,47,0.00,,,0.00,Wunderground v.1.15,2013-02-21 21:15:00,
2013-02-21 16:20:00,27.5,9.9,29.97,NW,313,3.0,6.0,47,0.00,,,0.00,Wunderground v.1.15,2013-02-21 21:20:00,
2013-02-21 16:25:00,27.2,10.1,29.97,NW,323,4.0,7.0,48,0.00,,,0.00,Wunderground v.1.15,2013-02-21 21:25:00,
2013-02-21 16:30:00,26.7,9.6,29.97,NW,319,5.0,5.0,48,0.00,,,0.00,Wunderground v.1.15,2013-02-21 21:30:00,
2013-02-21 16:35:00,26.3,9.2,29.98,NNW,335,6.0,6.0,48,0.00,,,0.00,Wunderground v.1.15,2013-02-21 21:35:00,
2013-02-21 16:40:00,26.0,9.4,29.98,North,360,5.0,5.0,49,0.00,,,0.00,Wunderground v.1.15,2013-02-21 21:40:00,
2013-02-21 16:45:00,25.7,9.2,29.98,SE,132,4.0,5.0,49,0.00,,,0.00,Wunderground v.1.15,2013-02-21 21:45:00,
2013-02-21 16:50:00,25.6,9.5,30.00,NW,325,4.0,4.0,50,0.00,,,0.00,Wunderground v.1.15,2013-02-21 21:50:00,
2013-02-21 17:00:00,25.3,9.2,30.00,NW,314,4.0,4.0,50,0.00,,,0.00,Wunderground v.1.15,2013-02-21 22:00:00,
2013-02-21 17:05:00,25.1,9.5,30.00,North,360,3.0,4.0,51,0.00,,,0.00,Wunderground v.1.15,2013-02-21 22:05:00,
2013-02-21 17:15:00,25.0,9.8,30.00,NW,319,3.0,3.0,52,0.00,,,0.00,Wunderground v.1.15,2013-02-21 22:15:00,
2013-02-21 17:25:00,24.5,8.9,30.02,NW,319,3.0,7.0,51,0.00,,,0.00,Wunderground v.1.15,2013-02-21 22:25:00,
2013-02-21 17:30:00,24.4,9.3,30.02,NNW,332,4.0,5.0,52,0.00,,,0.00,Wunderground v.1.15,2013-02-21 22:30:00,
2013-02-21 17:35:00,24.1,8.6,30.02,North,355,5.0,7.0,51,0.00,,,0.00,Wunderground v.1.15,2013-02-21 22:35:00,
2013-02-21 17:44:00,23.9,8.8,30.02,North,360,3.0,5.0,52,0.00,,,0.00,Wunderground v.1.15,2013-02-21 22:44:00,
2013-02-21 17:50:00,23.8,8.7,30.05,NNW,346,2.0,4.0,52,0.00,,,0.00,Wunderground v.1.15,2013-02-21 22:50:00,
2013-02-21 17:55:00,23.6,8.9,30.05,NNW,338,2.0,4.0,53,0.00,,,0.00,Wunderground v.1.15,2013-02-21 22:55:00,
2013-02-21 18:00:00,23.5,8.9,30.05,North,360,3.0,3.0,53,0.00,,,0.00,Wunderground v.1.15,2013-02-21 23:00:00,
2013-02-21 18:10:00,23.2,8.6,30.05,WNW,301,2.0,2.0,53,0.00,,,0.00,Wunderground v.1.15,2013-02-21 23:10:00,
2013-02-21 18:15:00,22.9,8.7,30.05,WNW,292,3.0,5.0,54,0.00,,,0.00,Wunderground v.1.15,2013-02-21 23:15:00,
2013-02-21 18:20:00,22.9,8.7,30.05,NNE,18,3.0,3.0,54,0.00,,,0.00,Wunderground v.1.15,2013-02-21 23:20:00,
2013-02-21 18:30:00,22.7,8.9,30.05,NNW,338,3.0,3.0,55,0.00,,,0.00,Wunderground v.1.15,2013-02-21 23:30:00,
2013-02-21 18:40:00,22.9,9.1,30.06,NW,324,3.0,4.0,55,0.00,,,0.00,Wunderground v.1.15,2013-02-21 23:40:00,
2013-02-21 18:50:00,23.0,8.8,30.07,NNW,348,4.0,4.0,54,0.00,,,0.00,Wunderground v.1.15,2013-02-21 23:50:00,
2013-02-21 18:55:00,23.0,9.2,30.07,WNW,300,3.0,4.0,55,0.00,,,0.00,Wunderground v.1.15,2013-02-21 23:55:00,
2013-02-21 19:00:00,23.0,9.2,30.07,NNW,337,3.0,3.0,55,0.00,,,0.00,Wunderground v.1.15,2013-02-22 00:00:00,
2013-02-21 19:05:00,23.0,9.2,30.07,NE,38,2.0,3.0,55,0.00,,,0.00,Wunderground v.1.15,2013-02-22 00:05:00,
2013-02-21 19:14:00,23.2,9.4,30.07,NW,318,2.0,5.0,55,0.00,,,0.00,Wunderground v.1.15,2013-02-22 00:14:00,
2013-02-21 19:19:00,23.3,9.5,30.08,North,360,3.0,5.0,55,0.00,,,0.00,Wunderground v.1.15,2013-02-22 00:19:00,
2013-02-21 19:25:00,23.3,9.5,30.08,NNW,343,3.0,5.0,55,0.00,,,0.00,Wunderground v.1.15,2013-02-22 00:25:00,
2013-02-21 19:30:00,23.3,9.5,30.08,North,355,3.0,3.0,55,0.00,,,0.00,Wunderground v.1.15,2013-02-22 00:30:00,
2013-02-21 19:40:00,23.2,9.4,30.09,NNW,340,2.0,2.0,55,0.00,,,0.00,Wunderground v.1.15,2013-02-22 00:40:00,
2013-02-21 19:50:00,23.2,9.8,30.10,NW,316,2.0,2.0,56,0.00,,,0.00,Wunderground v.1.15,2013-02-22 00:50:00,
2013-02-21 19:55:00,23.2,9.8,30.10,NNW,333,3.0,3.0,56,0.00,,,0.00,Wunderground v.1.15,2013-02-22 00:55:00,
2013-02-21 20:05:00,23.3,9.9,30.10,WNW,300,2.0,3.0,56,0.00,,,0.00,Wunderground v.1.15,2013-02-22 01:05:00,
2013-02-21 20:14:00,23.5,10.5,30.10,NNE,14,1.0,2.0,57,0.00,,,0.00,Wunderground v.1.15,2013-02-22 01:14:00,
2013-02-21 20:20:00,23.6,10.6,30.12,North,355,2.0,6.0,57,0.00,,,0.00,Wunderground v.1.15,2013-02-22 01:20:00,
2013-02-21 20:30:00,23.8,10.4,30.12,NNW,330,4.0,5.0,56,0.00,,,0.00,Wunderground v.1.15,2013-02-22 01:30:00,
2013-02-21 20:35:00,23.8,10.8,30.14,NW,306,3.0,6.0,57,0.00,,,0.00,Wunderground v.1.15,2013-02-22 01:35:00,
2013-02-21 20:45:00,23.6,11.0,30.14,North,355,2.0,8.0,58,0.00,,,0.00,Wunderground v.1.15,2013-02-22 01:45:00,
2013-02-21 20:55:00,23.8,11.2,30.14,NNW,344,3.0,3.0,58,0.00,,,0.00,Wunderground v.1.15,2013-02-22 01:55:00,
2013-02-21 21:00:00,23.8,11.2,30.14,NNW,333,3.0,4.0,58,0.00,,,0.00,Wunderground v.1.15,2013-02-22 02:00:00,
2013-02-21 21:05:00,23.8,11.5,30.15,NW,321,3.0,4.0,59,0.00,,,0.00,Wunderground v.1.15,2013-02-22 02:05:00,
2013-02-21 21:15:00,23.8,11.5,30.15,NNW,327,2.0,2.0,59,0.00,,,0.00,Wunderground v.1.15,2013-02-22 02:15:00,
2013-02-21 21:25:00,24.1,12.2,30.16,NNW,340,2.0,4.0,60,0.00,,,0.00,Wunderground v.1.15,2013-02-22 02:25:00,
2013-02-21 21:30:00,24.1,12.2,30.16,West,270,2.0,3.0,60,0.00,,,0.00,Wunderground v.1.15,2013-02-22 02:30:00,
2013-02-21 21:35:00,23.9,12.0,30.17,NNE,15,3.0,5.0,60,0.00,,,0.00,Wunderground v.1.15,2013-02-22 02:35:00,
2013-02-21 21:40:00,23.9,12.0,30.17,NNW,327,3.0,3.0,60,0.00,,,0.00,Wunderground v.1.15,2013-02-22 02:40:00,
2013-02-21 21:50:00,23.9,12.0,30.18,NW,311,2.0,2.0,60,0.00,,,0.00,Wunderground v.1.15,2013-02-22 02:50:00,
2013-02-21 21:55:00,23.8,11.9,30.18,NW,311,1.0,2.0,60,0.00,,,0.00,Wunderground v.1.15,2013-02-22 02:55:00,
2013-02-21 22:00:00,23.6,11.7,30.18,NNW,341,0.0,1.0,60,0.00,,,0.00,Wunderground v.1.15,2013-02-22 03:00:00,
2013-02-21 22:10:00,23.6,12.1,30.19,NNW,331,2.0,2.0,61,0.00,,,0.00,Wunderground v.1.15,2013-02-22 03:10:00,
2013-02-21 22:15:00,23.3,11.8,30.19,NW,322,1.0,2.0,61,0.00,,,0.00,Wunderground v.1.15,2013-02-22 03:15:00,
2013-02-21 22:25:00,23.0,11.5,30.20,NNE,12,1.0,5.0,61,0.00,,,0.00,Wunderground v.1.15,2013-02-22 03:25:00,
2013-02-21 22:30:00,22.9,11.4,30.20,NNW,337,2.0,4.0,61,0.00,,,0.00,Wunderground v.1.15,2013-02-22 03:30:00,
2013-02-21 22:35:00,22.9,11.4,30.21,NNE,26,3.0,4.0,61,0.00,,,0.00,Wunderground v.1.15,2013-02-22 03:35:00,
2013-02-21 22:45:00,22.5,11.1,30.21,WNW,286,1.0,3.0,61,0.00,,,0.00,Wunderground v.1.15,2013-02-22 03:45:00,
2013-02-21 22:55:00,22.5,11.1,30.22,NNW,343,2.0,2.0,61,0.00,,,0.00,Wunderground v.1.15,2013-02-22 03:55:00,
2013-02-21 23:00:00,22.5,11.1,30.22,NNW,333,2.0,2.0,61,0.00,,,0.00,Wunderground v.1.15,2013-02-22 04:00:00,
2013-02-21 23:05:00,22.5,11.1,30.23,NNE,30,2.0,2.0,61,0.00,,,0.00,Wunderground v.1.15,2013-02-22 04:05:00,
2013-02-21 23:15:00,22.5,11.4,30.23,NNW,333,1.0,2.0,62,0.00,,,0.00,Wunderground v.1.15,2013-02-22 04:15:00,
2013-02-21 23:20:00,22.7,11.6,30.24,NW,315,1.0,1.0,62,0.00,,,0.00,Wunderground v.1.15,2013-02-22 04:20:00,
2013-02-21 23:30:00,22.9,11.8,30.24,North,360,1.0,1.0,62,0.00,,,0.00,Wunderground v.1.15,2013-02-22 04:30:00,
2013-02-21 23:35:00,22.9,11.8,30.24,North,349,2.0,2.0,62,0.00,,,0.00,Wunderground v.1.15,2013-02-22 04:35:00,
2013-02-21 23:40:00,22.9,11.8,30.24,NW,319,2.0,3.0,62,0.00,,,0.00,Wunderground v.1.15,2013-02-22 04:40:00,
2013-02-21 23:50:00,23.0,11.9,30.25,NW,324,1.0,2.0,62,0.00,,,0.00,Wunderground v.1.15,2013-02-22 04:50:00,
2013-02-21 23:59:00,23.0,12.3,30.25,NNW,347,1.0,2.0,63,0.00,,,0.00,Wunderground v.1.15,2013-02-22 04:59:00,